עמוד ראשי
METAR-TAF:

METAR-TAF

שדות תעופה :

Kuparuk, אלסקה, ארצות הברית

קו רוחב: 70-19N, קו אורך: 149-35W, גובה: 20מטר

תצפית מזג אוויר נוכחית

הדו"ח נערך לפני 58דקות, בשעה 16:45 UTC
רוח 12קשר מכיוון מזרח
טמפרטורת 3 צלסיוס
לחות 81%
לחץ 1020 hPa
ראות: 16.1קילומטר
מעט עננים בגובה 500רגל
מעט עננים בגובה 12000רגל

METAR: PAKU 191645Z 08012KT 10SM R06/P6000FT FEW005 FEW120 03/M00 A3011

זמן: 09:43 (17:43 UTC)


TAF: חסר

תצפיות ותחזיות מזג אוויר לגבי יותר מ- 4,000 שדות תעופה ברחבי העולם. דוחות METAR ו- TAF.

התחנות הזמינות מסומנות בנקודות צהובות ואדומות על גבי המפה.

העבר את העכבר לנקודה הצבעונית על מנת לראות את שם התחנה.

לאחר מכן, לחץ כדי לראות את תוכן ואת תחזיות מזג האוויר.

כדי לשנות את המפה: לחץ על הכפתורים הירוקים עם הפלוס השחור כדי להתקרב; על הכפתור הירוק עם המקף כדי להתרחק; או בחיצים הירוקים למפות סמוכות.


METAR-TAF: